sensor_id;sensor_type;location;lat;lon;timestamp;P1;durP1;ratioP1;P2;durP2;ratioP2
27959;SDS011;15299;48.184;-1.916;2022-08-19T00:00:25;3.78;;;1.95;;
27959;SDS011;15299;48.184;-1.916;2022-08-19T00:02:54;3.63;;;1.92;;
27959;SDS011;15299;48.184;-1.916;2022-08-19T00:05:22;2.38;;;1.88;;
27959;SDS011;15299;48.184;-1.916;2022-08-19T00:07:49;3.90;;;1.88;;
27959;SDS011;15299;48.184;-1.916;2022-08-19T00:10:17;4.35;;;2.10;;
27959;SDS011;15299;48.184;-1.916;2022-08-19T00:12:45;2.30;;;1.80;;
27959;SDS011;15299;48.184;-1.916;2022-08-19T00:15:14;2.58;;;1.50;;
27959;SDS011;15299;48.184;-1.916;2022-08-19T00:17:43;3.92;;;1.92;;
27959;SDS011;15299;48.184;-1.916;2022-08-19T00:20:14;2.10;;;1.80;;
27959;SDS011;15299;48.184;-1.916;2022-08-19T00:22:43;3.50;;;1.60;;
27959;SDS011;15299;48.184;-1.916;2022-08-19T00:25:11;4.88;;;1.90;;
27959;SDS011;15299;48.184;-1.916;2022-08-19T00:27:39;3.05;;;1.70;;
27959;SDS011;15299;48.184;-1.916;2022-08-19T00:30:07;3.30;;;1.83;;
27959;SDS011;15299;48.184;-1.916;2022-08-19T00:32:36;8.20;;;2.00;;
27959;SDS011;15299;48.184;-1.916;2022-08-19T00:35:04;6.20;;;1.60;;
27959;SDS011;15299;48.184;-1.916;2022-08-19T00:37:36;2.83;;;1.77;;
27959;SDS011;15299;48.184;-1.916;2022-08-19T00:40:04;2.47;;;1.65;;
27959;SDS011;15299;48.184;-1.916;2022-08-19T00:42:33;3.45;;;1.83;;
27959;SDS011;15299;48.184;-1.916;2022-08-19T00:45:01;3.15;;;1.73;;
27959;SDS011;15299;48.184;-1.916;2022-08-19T00:47:30;3.20;;;2.20;;
27959;SDS011;15299;48.184;-1.916;2022-08-19T00:49:58;5.43;;;1.98;;
27959;SDS011;15299;48.184;-1.916;2022-08-19T00:52:27;1.30;;;1.20;;
27959;SDS011;15299;48.184;-1.916;2022-08-19T00:54:57;2.20;;;1.77;;
27959;SDS011;15299;48.184;-1.916;2022-08-19T00:57:27;4.65;;;1.80;;
27959;SDS011;15299;48.184;-1.916;2022-08-19T00:59:56;3.53;;;2.20;;
27959;SDS011;15299;48.184;-1.916;2022-08-19T01:02:25;4.28;;;1.77;;
27959;SDS011;15299;48.184;-1.916;2022-08-19T01:04:54;2.83;;;2.08;;
27959;SDS011;15299;48.184;-1.916;2022-08-19T01:07:21;3.80;;;2.47;;
27959;SDS011;15299;48.184;-1.916;2022-08-19T01:09:49;2.80;;;2.20;;
27959;SDS011;15299;48.184;-1.916;2022-08-19T01:12:18;3.75;;;2.40;;
27959;SDS011;15299;48.184;-1.916;2022-08-19T01:14:49;3.67;;;2.22;;
27959;SDS011;15299;48.184;-1.916;2022-08-19T01:17:19;3.88;;;2.50;;
27959;SDS011;15299;48.184;-1.916;2022-08-19T01:19:47;3.42;;;2.05;;
27959;SDS011;15299;48.184;-1.916;2022-08-19T01:22:16;5.00;;;2.78;;
27959;SDS011;15299;48.184;-1.916;2022-08-19T01:24:48;5.88;;;2.42;;
27959;SDS011;15299;48.184;-1.916;2022-08-19T01:27:15;3.10;;;2.08;;
27959;SDS011;15299;48.184;-1.916;2022-08-19T01:29:43;4.10;;;1.83;;
27959;SDS011;15299;48.184;-1.916;2022-08-19T01:32:12;5.88;;;2.50;;
27959;SDS011;15299;48.184;-1.916;2022-08-19T01:34:40;3.63;;;2.53;;
27959;SDS011;15299;48.184;-1.916;2022-08-19T01:37:13;4.75;;;2.47;;
27959;SDS011;15299;48.184;-1.916;2022-08-19T01:39:41;6.97;;;2.30;;
27959;SDS011;15299;48.184;-1.916;2022-08-19T01:42:11;3.83;;;2.20;;
27959;SDS011;15299;48.184;-1.916;2022-08-19T01:44:38;5.30;;;2.30;;
27959;SDS011;15299;48.184;-1.916;2022-08-19T01:47:07;8.68;;;3.40;;
27959;SDS011;15299;48.184;-1.916;2022-08-19T01:49:35;3.42;;;2.40;;
27959;SDS011;15299;48.184;-1.916;2022-08-19T01:52:03;6.13;;;2.55;;
27959;SDS011;15299;48.184;-1.916;2022-08-19T01:54:31;4.57;;;2.60;;
27959;SDS011;15299;48.184;-1.916;2022-08-19T01:57:00;3.83;;;2.85;;
27959;SDS011;15299;48.184;-1.916;2022-08-19T01:59:29;3.45;;;2.47;;
27959;SDS011;15299;48.184;-1.916;2022-08-19T02:01:57;2.65;;;2.22;;
27959;SDS011;15299;48.184;-1.916;2022-08-19T02:04:25;6.82;;;2.60;;
27959;SDS011;15299;48.184;-1.916;2022-08-19T02:06:53;3.15;;;2.30;;
27959;SDS011;15299;48.184;-1.916;2022-08-19T02:09:21;3.00;;;2.53;;
27959;SDS011;15299;48.184;-1.916;2022-08-19T02:11:48;6.57;;;2.17;;
27959;SDS011;15299;48.184;-1.916;2022-08-19T02:14:16;3.60;;;2.40;;
27959;SDS011;15299;48.184;-1.916;2022-08-19T02:16:45;4.82;;;2.33;;
27959;SDS011;15299;48.184;-1.916;2022-08-19T02:19:13;4.05;;;2.30;;
27959;SDS011;15299;48.184;-1.916;2022-08-19T02:21:40;5.13;;;2.38;;
27959;SDS011;15299;48.184;-1.916;2022-08-19T02:24:08;3.38;;;2.17;;
27959;SDS011;15299;48.184;-1.916;2022-08-19T02:26:37;6.28;;;1.70;;
27959;SDS011;15299;48.184;-1.916;2022-08-19T02:29:07;2.72;;;1.95;;
27959;SDS011;15299;48.184;-1.916;2022-08-19T02:31:34;2.95;;;2.20;;
27959;SDS011;15299;48.184;-1.916;2022-08-19T02:34:03;2.55;;;2.25;;
27959;SDS011;15299;48.184;-1.916;2022-08-19T02:36:31;6.13;;;2.10;;
27959;SDS011;15299;48.184;-1.916;2022-08-19T02:38:58;4.25;;;2.17;;
27959;SDS011;15299;48.184;-1.916;2022-08-19T02:41:26;3.00;;;2.53;;
27959;SDS011;15299;48.184;-1.916;2022-08-19T02:43:53;3.63;;;2.10;;
27959;SDS011;15299;48.184;-1.916;2022-08-19T02:46:23;5.15;;;3.08;;
27959;SDS011;15299;48.184;-1.916;2022-08-19T02:48:53;3.75;;;1.83;;
27959;SDS011;15299;48.184;-1.916;2022-08-19T02:51:23;2.95;;;2.42;;
27959;SDS011;15299;48.184;-1.916;2022-08-19T02:53:51;3.13;;;2.22;;
27959;SDS011;15299;48.184;-1.916;2022-08-19T02:56:19;7.72;;;2.55;;
27959;SDS011;15299;48.184;-1.916;2022-08-19T02:58:47;2.90;;;2.10;;
27959;SDS011;15299;48.184;-1.916;2022-08-19T03:01:19;4.05;;;2.05;;
27959;SDS011;15299;48.184;-1.916;2022-08-19T03:03:47;3.00;;;2.22;;
27959;SDS011;15299;48.184;-1.916;2022-08-19T03:06:15;4.97;;;2.22;;
27959;SDS011;15299;48.184;-1.916;2022-08-19T03:08:45;4.70;;;2.10;;
27959;SDS011;15299;48.184;-1.916;2022-08-19T03:11:14;4.75;;;2.00;;
27959;SDS011;15299;48.184;-1.916;2022-08-19T03:13:42;4.70;;;2.10;;
27959;SDS011;15299;48.184;-1.916;2022-08-19T03:16:09;5.07;;;2.30;;
27959;SDS011;15299;48.184;-1.916;2022-08-19T03:18:37;4.28;;;2.67;;
27959;SDS011;15299;48.184;-1.916;2022-08-19T03:21:05;5.22;;;2.65;;
27959;SDS011;15299;48.184;-1.916;2022-08-19T03:23:33;3.25;;;2.53;;
27959;SDS011;15299;48.184;-1.916;2022-08-19T03:26:05;3.50;;;2.97;;
27959;SDS011;15299;48.184;-1.916;2022-08-19T03:28:32;4.53;;;2.38;;
27959;SDS011;15299;48.184;-1.916;2022-08-19T03:31:02;5.50;;;3.42;;
27959;SDS011;15299;48.184;-1.916;2022-08-19T03:33:30;3.83;;;2.67;;
27959;SDS011;15299;48.184;-1.916;2022-08-19T03:36:03;4.38;;;3.15;;
27959;SDS011;15299;48.184;-1.916;2022-08-19T03:38:30;6.68;;;3.40;;
27959;SDS011;15299;48.184;-1.916;2022-08-19T03:41:01;7.03;;;3.30;;
27959;SDS011;15299;48.184;-1.916;2022-08-19T03:43:33;3.90;;;2.70;;
27959;SDS011;15299;48.184;-1.916;2022-08-19T03:46:02;3.55;;;2.35;;
27959;SDS011;15299;48.184;-1.916;2022-08-19T03:48:30;5.03;;;2.88;;
27959;SDS011;15299;48.184;-1.916;2022-08-19T03:50:58;3.55;;;2.83;;
27959;SDS011;15299;48.184;-1.916;2022-08-19T03:53:26;3.75;;;2.88;;
27959;SDS011;15299;48.184;-1.916;2022-08-19T03:55:54;3.67;;;2.78;;
27959;SDS011;15299;48.184;-1.916;2022-08-19T03:58:22;5.53;;;3.10;;
27959;SDS011;15299;48.184;-1.916;2022-08-19T04:00:51;3.20;;;2.85;;
27959;SDS011;15299;48.184;-1.916;2022-08-19T04:03:19;6.53;;;2.60;;
27959;SDS011;15299;48.184;-1.916;2022-08-19T04:05:46;6.15;;;2.97;;
27959;SDS011;15299;48.184;-1.916;2022-08-19T04:08:14;2.30;;;2.00;;
27959;SDS011;15299;48.184;-1.916;2022-08-19T04:10:46;3.88;;;2.28;;
27959;SDS011;15299;48.184;-1.916;2022-08-19T04:13:14;3.55;;;2.60;;
27959;SDS011;15299;48.184;-1.916;2022-08-19T04:15:42;3.03;;;2.38;;
27959;SDS011;15299;48.184;-1.916;2022-08-19T04:18:13;2.30;;;2.10;;
27959;SDS011;15299;48.184;-1.916;2022-08-19T04:20:41;4.63;;;2.45;;
27959;SDS011;15299;48.184;-1.916;2022-08-19T04:23:09;5.18;;;2.90;;
27959;SDS011;15299;48.184;-1.916;2022-08-19T04:25:38;4.13;;;2.65;;
27959;SDS011;15299;48.184;-1.916;2022-08-19T04:28:05;3.90;;;2.85;;
27959;SDS011;15299;48.184;-1.916;2022-08-19T04:30:38;2.97;;;2.67;;
27959;SDS011;15299;48.184;-1.916;2022-08-19T04:33:06;3.67;;;2.28;;
27959;SDS011;15299;48.184;-1.916;2022-08-19T04:35:39;7.05;;;3.00;;
27959;SDS011;15299;48.184;-1.916;2022-08-19T04:38:07;6.70;;;3.75;;
27959;SDS011;15299;48.184;-1.916;2022-08-19T04:40:39;5.28;;;3.40;;
27959;SDS011;15299;48.184;-1.916;2022-08-19T04:43:24;4.82;;;3.28;;
27959;SDS011;15299;48.184;-1.916;2022-08-19T04:45:52;3.70;;;2.70;;
27959;SDS011;15299;48.184;-1.916;2022-08-19T04:48:20;6.47;;;2.92;;
27959;SDS011;15299;48.184;-1.916;2022-08-19T04:50:53;5.30;;;2.90;;
27959;SDS011;15299;48.184;-1.916;2022-08-19T04:53:23;8.48;;;2.97;;
27959;SDS011;15299;48.184;-1.916;2022-08-19T04:55:54;3.13;;;2.47;;
27959;SDS011;15299;48.184;-1.916;2022-08-19T04:58:22;4.90;;;2.80;;
27959;SDS011;15299;48.184;-1.916;2022-08-19T05:00:50;5.35;;;3.10;;
27959;SDS011;15299;48.184;-1.916;2022-08-19T05:03:18;6.32;;;2.92;;
27959;SDS011;15299;48.184;-1.916;2022-08-19T05:05:47;5.85;;;3.20;;
27959;SDS011;15299;48.184;-1.916;2022-08-19T05:08:18;6.18;;;3.35;;
27959;SDS011;15299;48.184;-1.916;2022-08-19T05:10:47;5.90;;;2.88;;
27959;SDS011;15299;48.184;-1.916;2022-08-19T05:13:15;8.18;;;2.85;;
27959;SDS011;15299;48.184;-1.916;2022-08-19T05:15:44;4.43;;;3.00;;
27959;SDS011;15299;48.184;-1.916;2022-08-19T05:18:11;4.80;;;3.00;;
27959;SDS011;15299;48.184;-1.916;2022-08-19T05:20:56;4.65;;;3.05;;
27959;SDS011;15299;48.184;-1.916;2022-08-19T05:23:43;5.82;;;3.15;;
27959;SDS011;15299;48.184;-1.916;2022-08-19T05:26:11;6.22;;;3.22;;
27959;SDS011;15299;48.184;-1.916;2022-08-19T05:28:38;4.20;;;2.90;;
27959;SDS011;15299;48.184;-1.916;2022-08-19T05:31:06;4.90;;;3.17;;
27959;SDS011;15299;48.184;-1.916;2022-08-19T05:33:33;5.38;;;3.17;;
27959;SDS011;15299;48.184;-1.916;2022-08-19T05:36:01;3.92;;;3.20;;
27959;SDS011;15299;48.184;-1.916;2022-08-19T05:38:29;7.97;;;3.28;;
27959;SDS011;15299;48.184;-1.916;2022-08-19T05:40:58;5.50;;;3.08;;
27959;SDS011;15299;48.184;-1.916;2022-08-19T05:43:26;4.95;;;3.35;;
27959;SDS011;15299;48.184;-1.916;2022-08-19T05:45:54;3.95;;;3.20;;
27959;SDS011;15299;48.184;-1.916;2022-08-19T05:48:21;5.90;;;3.65;;
27959;SDS011;15299;48.184;-1.916;2022-08-19T05:50:49;8.25;;;3.35;;
27959;SDS011;15299;48.184;-1.916;2022-08-19T05:53:16;5.07;;;3.10;;
27959;SDS011;15299;48.184;-1.916;2022-08-19T05:55:44;5.68;;;3.70;;
27959;SDS011;15299;48.184;-1.916;2022-08-19T05:58:15;6.38;;;3.13;;
27959;SDS011;15299;48.184;-1.916;2022-08-19T06:00:42;7.40;;;2.90;;
27959;SDS011;15299;48.184;-1.916;2022-08-19T06:03:10;5.95;;;2.95;;
27959;SDS011;15299;48.184;-1.916;2022-08-19T06:05:38;6.18;;;3.20;;
27959;SDS011;15299;48.184;-1.916;2022-08-19T06:08:05;5.53;;;3.30;;
27959;SDS011;15299;48.184;-1.916;2022-08-19T06:10:33;8.98;;;2.80;;
27959;SDS011;15299;48.184;-1.916;2022-08-19T06:13:02;8.60;;;3.47;;
27959;SDS011;15299;48.184;-1.916;2022-08-19T06:15:32;4.57;;;3.40;;
27959;SDS011;15299;48.184;-1.916;2022-08-19T06:18:00;7.88;;;3.38;;
27959;SDS011;15299;48.184;-1.916;2022-08-19T06:20:30;4.90;;;3.38;;
27959;SDS011;15299;48.184;-1.916;2022-08-19T06:22:59;8.70;;;3.50;;
27959;SDS011;15299;48.184;-1.916;2022-08-19T06:25:27;11.43;;;4.78;;
27959;SDS011;15299;48.184;-1.916;2022-08-19T06:27:55;7.97;;;3.50;;
27959;SDS011;15299;48.184;-1.916;2022-08-19T06:30:22;6.63;;;3.70;;
27959;SDS011;15299;48.184;-1.916;2022-08-19T06:32:51;6.00;;;3.55;;
27959;SDS011;15299;48.184;-1.916;2022-08-19T06:35:19;6.82;;;3.88;;
27959;SDS011;15299;48.184;-1.916;2022-08-19T06:37:47;8.68;;;3.80;;
27959;SDS011;15299;48.184;-1.916;2022-08-19T06:40:15;8.38;;;3.67;;
27959;SDS011;15299;48.184;-1.916;2022-08-19T06:42:42;8.13;;;4.18;;
27959;SDS011;15299;48.184;-1.916;2022-08-19T06:45:10;12.13;;;4.03;;
27959;SDS011;15299;48.184;-1.916;2022-08-19T06:47:53;10.82;;;4.07;;
27959;SDS011;15299;48.184;-1.916;2022-08-19T06:50:22;6.20;;;3.70;;
27959;SDS011;15299;48.184;-1.916;2022-08-19T06:52:50;6.03;;;3.53;;
27959;SDS011;15299;48.184;-1.916;2022-08-19T06:55:19;6.45;;;3.45;;
27959;SDS011;15299;48.184;-1.916;2022-08-19T06:57:47;10.40;;;3.85;;
27959;SDS011;15299;48.184;-1.916;2022-08-19T07:00:16;12.50;;;4.10;;
27959;SDS011;15299;48.184;-1.916;2022-08-19T07:02:44;8.93;;;4.75;;
27959;SDS011;15299;48.184;-1.916;2022-08-19T07:05:12;9.35;;;3.92;;
27959;SDS011;15299;48.184;-1.916;2022-08-19T07:07:41;11.02;;;4.03;;
27959;SDS011;15299;48.184;-1.916;2022-08-19T07:10:09;7.43;;;3.85;;
27959;SDS011;15299;48.184;-1.916;2022-08-19T07:12:36;5.43;;;3.20;;
27959;SDS011;15299;48.184;-1.916;2022-08-19T07:15:06;7.18;;;4.00;;
27959;SDS011;15299;48.184;-1.916;2022-08-19T07:17:36;10.50;;;4.43;;
27959;SDS011;15299;48.184;-1.916;2022-08-19T07:20:06;12.90;;;4.80;;
27959;SDS011;15299;48.184;-1.916;2022-08-19T07:22:34;7.07;;;3.97;;
27959;SDS011;15299;48.184;-1.916;2022-08-19T07:25:07;9.77;;;4.90;;
27959;SDS011;15299;48.184;-1.916;2022-08-19T07:27:38;9.73;;;3.97;;
27959;SDS011;15299;48.184;-1.916;2022-08-19T07:30:07;10.35;;;4.47;;
27959;SDS011;15299;48.184;-1.916;2022-08-19T07:32:37;7.03;;;4.00;;
27959;SDS011;15299;48.184;-1.916;2022-08-19T07:35:05;11.82;;;4.20;;
27959;SDS011;15299;48.184;-1.916;2022-08-19T07:37:33;9.50;;;4.15;;
27959;SDS011;15299;48.184;-1.916;2022-08-19T07:40:11;16.95;;;4.30;;
27959;SDS011;15299;48.184;-1.916;2022-08-19T07:42:49;9.68;;;4.53;;
27959;SDS011;15299;48.184;-1.916;2022-08-19T07:45:17;8.98;;;4.03;;
27959;SDS011;15299;48.184;-1.916;2022-08-19T07:47:45;10.70;;;4.00;;
27959;SDS011;15299;48.184;-1.916;2022-08-19T07:50:12;9.80;;;3.92;;
27959;SDS011;15299;48.184;-1.916;2022-08-19T07:52:40;11.90;;;4.47;;
27959;SDS011;15299;48.184;-1.916;2022-08-19T07:55:13;9.20;;;3.63;;
27959;SDS011;15299;48.184;-1.916;2022-08-19T07:57:41;5.55;;;3.33;;
27959;SDS011;15299;48.184;-1.916;2022-08-19T08:00:09;14.20;;;3.70;;
27959;SDS011;15299;48.184;-1.916;2022-08-19T08:02:37;9.27;;;4.10;;
27959;SDS011;15299;48.184;-1.916;2022-08-19T08:05:08;11.43;;;3.83;;
27959;SDS011;15299;48.184;-1.916;2022-08-19T08:07:56;11.90;;;3.75;;
27959;SDS011;15299;48.184;-1.916;2022-08-19T08:10:43;13.77;;;3.70;;
27959;SDS011;15299;48.184;-1.916;2022-08-19T08:13:10;13.07;;;4.22;;
27959;SDS011;15299;48.184;-1.916;2022-08-19T08:15:38;16.50;;;4.57;;
27959;SDS011;15299;48.184;-1.916;2022-08-19T08:18:06;8.00;;;3.03;;
27959;SDS011;15299;48.184;-1.916;2022-08-19T08:20:33;12.70;;;3.45;;
27959;SDS011;15299;48.184;-1.916;2022-08-19T08:23:01;6.20;;;3.60;;
27959;SDS011;15299;48.184;-1.916;2022-08-19T08:25:48;8.95;;;3.60;;
27959;SDS011;15299;48.184;-1.916;2022-08-19T08:28:16;7.95;;;2.78;;
27959;SDS011;15299;48.184;-1.916;2022-08-19T08:30:44;8.50;;;2.53;;
27959;SDS011;15299;48.184;-1.916;2022-08-19T08:33:17;5.75;;;3.13;;
27959;SDS011;15299;48.184;-1.916;2022-08-19T08:35:45;6.13;;;2.55;;
27959;SDS011;15299;48.184;-1.916;2022-08-19T08:38:12;4.05;;;2.33;;
27959;SDS011;15299;48.184;-1.916;2022-08-19T08:40:42;9.05;;;2.75;;
27959;SDS011;15299;48.184;-1.916;2022-08-19T08:43:13;6.38;;;2.40;;
27959;SDS011;15299;48.184;-1.916;2022-08-19T08:45:47;6.70;;;2.08;;
27959;SDS011;15299;48.184;-1.916;2022-08-19T08:48:18;5.55;;;2.40;;
27959;SDS011;15299;48.184;-1.916;2022-08-19T08:50:47;7.82;;;3.03;;
27959;SDS011;15299;48.184;-1.916;2022-08-19T08:53:18;10.63;;;2.72;;
27959;SDS011;15299;48.184;-1.916;2022-08-19T08:55:46;13.20;;;3.85;;
27959;SDS011;15299;48.184;-1.916;2022-08-19T08:58:16;8.80;;;3.35;;
27959;SDS011;15299;48.184;-1.916;2022-08-19T09:00:46;10.20;;;3.28;;
27959;SDS011;15299;48.184;-1.916;2022-08-19T09:03:22;4.63;;;2.40;;
27959;SDS011;15299;48.184;-1.916;2022-08-19T09:05:54;4.57;;;2.83;;
27959;SDS011;15299;48.184;-1.916;2022-08-19T09:08:26;17.25;;;3.40;;
27959;SDS011;15299;48.184;-1.916;2022-08-19T09:10:57;6.03;;;2.47;;
27959;SDS011;15299;48.184;-1.916;2022-08-19T09:13:37;3.17;;;2.40;;
27959;SDS011;15299;48.184;-1.916;2022-08-19T09:16:10;5.38;;;2.85;;
27959;SDS011;15299;48.184;-1.916;2022-08-19T09:18:39;5.30;;;2.42;;
27959;SDS011;15299;48.184;-1.916;2022-08-19T09:21:07;6.57;;;2.38;;
27959;SDS011;15299;48.184;-1.916;2022-08-19T09:23:35;7.70;;;2.08;;
27959;SDS011;15299;48.184;-1.916;2022-08-19T09:26:06;6.18;;;2.42;;
27959;SDS011;15299;48.184;-1.916;2022-08-19T09:28:35;5.95;;;2.10;;
27959;SDS011;15299;48.184;-1.916;2022-08-19T09:31:03;4.50;;;2.00;;
27959;SDS011;15299;48.184;-1.916;2022-08-19T09:33:31;5.47;;;1.73;;
27959;SDS011;15299;48.184;-1.916;2022-08-19T09:36:02;3.47;;;1.73;;
27959;SDS011;15299;48.184;-1.916;2022-08-19T09:38:31;5.40;;;1.90;;
27959;SDS011;15299;48.184;-1.916;2022-08-19T09:41:03;5.05;;;1.60;;
27959;SDS011;15299;48.184;-1.916;2022-08-19T09:43:31;6.47;;;1.90;;
27959;SDS011;15299;48.184;-1.916;2022-08-19T09:46:02;4.35;;;1.80;;
27959;SDS011;15299;48.184;-1.916;2022-08-19T09:48:31;5.03;;;2.13;;
27959;SDS011;15299;48.184;-1.916;2022-08-19T09:51:03;4.13;;;1.77;;
27959;SDS011;15299;48.184;-1.916;2022-08-19T09:53:31;9.25;;;1.90;;
27959;SDS011;15299;48.184;-1.916;2022-08-19T09:55:59;2.80;;;1.80;;
27959;SDS011;15299;48.184;-1.916;2022-08-19T09:58:28;4.97;;;2.00;;
27959;SDS011;15299;48.184;-1.916;2022-08-19T10:00:59;7.53;;;2.00;;
27959;SDS011;15299;48.184;-1.916;2022-08-19T10:03:32;9.57;;;2.60;;
27959;SDS011;15299;48.184;-1.916;2022-08-19T10:06:01;4.32;;;1.67;;
27959;SDS011;15299;48.184;-1.916;2022-08-19T10:08:30;3.33;;;1.65;;
27959;SDS011;15299;48.184;-1.916;2022-08-19T10:10:59;5.18;;;1.70;;
27959;SDS011;15299;48.184;-1.916;2022-08-19T10:13:28;5.32;;;1.67;;
27959;SDS011;15299;48.184;-1.916;2022-08-19T10:15:57;7.93;;;2.53;;
27959;SDS011;15299;48.184;-1.916;2022-08-19T10:18:29;4.93;;;2.35;;
27959;SDS011;15299;48.184;-1.916;2022-08-19T10:21:04;4.18;;;1.40;;
27959;SDS011;15299;48.184;-1.916;2022-08-19T10:23:34;5.25;;;2.03;;
27959;SDS011;15299;48.184;-1.916;2022-08-19T10:26:02;4.82;;;1.42;;
27959;SDS011;15299;48.184;-1.916;2022-08-19T10:28:34;5.25;;;1.85;;
27959;SDS011;15299;48.184;-1.916;2022-08-19T10:31:06;6.65;;;1.80;;
27959;SDS011;15299;48.184;-1.916;2022-08-19T10:33:34;6.13;;;1.40;;
27959;SDS011;15299;48.184;-1.916;2022-08-19T10:36:05;4.95;;;1.77;;
27959;SDS011;15299;48.184;-1.916;2022-08-19T10:38:32;4.13;;;1.50;;
27959;SDS011;15299;48.184;-1.916;2022-08-19T10:41:06;4.15;;;1.52;;
27959;SDS011;15299;48.184;-1.916;2022-08-19T10:43:34;1.65;;;1.00;;
27959;SDS011;15299;48.184;-1.916;2022-08-19T10:46:04;3.42;;;1.27;;
27959;SDS011;15299;48.184;-1.916;2022-08-19T10:48:32;3.97;;;1.10;;
27959;SDS011;15299;48.184;-1.916;2022-08-19T10:51:00;7.35;;;1.70;;
27959;SDS011;15299;48.184;-1.916;2022-08-19T10:53:47;3.70;;;1.75;;
27959;SDS011;15299;48.184;-1.916;2022-08-19T10:56:18;4.32;;;2.17;;
27959;SDS011;15299;48.184;-1.916;2022-08-19T10:59:03;4.85;;;1.60;;
27959;SDS011;15299;48.184;-1.916;2022-08-19T11:01:31;6.22;;;2.33;;
27959;SDS011;15299;48.184;-1.916;2022-08-19T11:04:00;6.15;;;1.70;;
27959;SDS011;15299;48.184;-1.916;2022-08-19T11:06:28;6.50;;;1.95;;
27959;SDS011;15299;48.184;-1.916;2022-08-19T11:08:57;4.15;;;1.38;;
27959;SDS011;15299;48.184;-1.916;2022-08-19T11:11:25;4.00;;;1.77;;
27959;SDS011;15299;48.184;-1.916;2022-08-19T11:13:53;7.18;;;1.45;;
27959;SDS011;15299;48.184;-1.916;2022-08-19T11:16:22;3.03;;;0.80;;
27959;SDS011;15299;48.184;-1.916;2022-08-19T11:18:52;3.60;;;1.50;;
27959;SDS011;15299;48.184;-1.916;2022-08-19T11:21:24;2.15;;;0.80;;
27959;SDS011;15299;48.184;-1.916;2022-08-19T11:23:54;4.97;;;1.02;;
27959;SDS011;15299;48.184;-1.916;2022-08-19T11:26:24;13.00;;;2.75;;
27959;SDS011;15299;48.184;-1.916;2022-08-19T11:28:52;3.72;;;1.20;;
27959;SDS011;15299;48.184;-1.916;2022-08-19T11:31:21;4.18;;;1.10;;
27959;SDS011;15299;48.184;-1.916;2022-08-19T11:33:49;1.83;;;0.85;;
27959;SDS011;15299;48.184;-1.916;2022-08-19T11:36:17;1.17;;;1.08;;
27959;SDS011;15299;48.184;-1.916;2022-08-19T11:38:45;3.15;;;1.20;;
27959;SDS011;15299;48.184;-1.916;2022-08-19T11:41:14;1.85;;;1.00;;
27959;SDS011;15299;48.184;-1.916;2022-08-19T11:43:44;2.53;;;1.00;;
27959;SDS011;15299;48.184;-1.916;2022-08-19T11:46:12;3.10;;;0.98;;
27959;SDS011;15299;48.184;-1.916;2022-08-19T11:48:48;2.38;;;0.82;;
27959;SDS011;15299;48.184;-1.916;2022-08-19T11:51:17;1.60;;;1.10;;
27959;SDS011;15299;48.184;-1.916;2022-08-19T11:53:45;1.77;;;0.70;;
27959;SDS011;15299;48.184;-1.916;2022-08-19T11:56:13;2.20;;;0.98;;
27959;SDS011;15299;48.184;-1.916;2022-08-19T11:58:40;1.15;;;0.70;;
27959;SDS011;15299;48.184;-1.916;2022-08-19T12:01:11;2.97;;;0.90;;
27959;SDS011;15299;48.184;-1.916;2022-08-19T12:03:39;2.63;;;0.98;;
27959;SDS011;15299;48.184;-1.916;2022-08-19T12:06:07;3.55;;;1.10;;
27959;SDS011;15299;48.184;-1.916;2022-08-19T12:08:35;2.55;;;0.70;;
27959;SDS011;15299;48.184;-1.916;2022-08-19T12:11:03;1.48;;;1.00;;
27959;SDS011;15299;48.184;-1.916;2022-08-19T12:13:33;5.38;;;1.13;;
27959;SDS011;15299;48.184;-1.916;2022-08-19T12:16:06;2.17;;;0.90;;
27959;SDS011;15299;48.184;-1.916;2022-08-19T12:18:39;4.88;;;1.27;;
27959;SDS011;15299;48.184;-1.916;2022-08-19T12:21:09;1.85;;;0.75;;
27959;SDS011;15299;48.184;-1.916;2022-08-19T12:23:40;0.55;;;0.55;;
27959;SDS011;15299;48.184;-1.916;2022-08-19T12:26:08;1.05;;;0.70;;
27959;SDS011;15299;48.184;-1.916;2022-08-19T12:28:36;1.95;;;0.60;;
27959;SDS011;15299;48.184;-1.916;2022-08-19T12:31:05;5.93;;;1.10;;
27959;SDS011;15299;48.184;-1.916;2022-08-19T12:33:33;2.65;;;0.75;;
27959;SDS011;15299;48.184;-1.916;2022-08-19T12:36:03;1.23;;;0.73;;
27959;SDS011;15299;48.184;-1.916;2022-08-19T12:38:31;13.57;;;1.05;;
27959;SDS011;15299;48.184;-1.916;2022-08-19T12:40:59;3.70;;;1.10;;
27959;SDS011;15299;48.184;-1.916;2022-08-19T12:43:28;1.23;;;0.60;;
27959;SDS011;15299;48.184;-1.916;2022-08-19T12:45:56;1.08;;;0.70;;
27959;SDS011;15299;48.184;-1.916;2022-08-19T12:48:24;1.60;;;0.90;;
27959;SDS011;15299;48.184;-1.916;2022-08-19T12:50:54;3.25;;;0.90;;
27959;SDS011;15299;48.184;-1.916;2022-08-19T12:53:23;3.40;;;1.05;;
27959;SDS011;15299;48.184;-1.916;2022-08-19T12:55:54;2.80;;;1.05;;
27959;SDS011;15299;48.184;-1.916;2022-08-19T12:58:22;3.42;;;0.90;;
27959;SDS011;15299;48.184;-1.916;2022-08-19T13:00:50;2.40;;;1.00;;
27959;SDS011;15299;48.184;-1.916;2022-08-19T13:03:17;3.53;;;1.20;;
27959;SDS011;15299;48.184;-1.916;2022-08-19T13:05:45;2.92;;;1.10;;
27959;SDS011;15299;48.184;-1.916;2022-08-19T13:08:12;3.33;;;1.17;;
27959;SDS011;15299;48.184;-1.916;2022-08-19T13:10:42;7.75;;;1.70;;
27959;SDS011;15299;48.184;-1.916;2022-08-19T13:13:12;2.42;;;1.35;;
27959;SDS011;15299;48.184;-1.916;2022-08-19T13:15:40;2.63;;;1.20;;
27959;SDS011;15299;48.184;-1.916;2022-08-19T13:18:10;4.25;;;1.35;;
27959;SDS011;15299;48.184;-1.916;2022-08-19T13:20:41;7.40;;;1.20;;
27959;SDS011;15299;48.184;-1.916;2022-08-19T13:23:09;2.67;;;0.55;;
27959;SDS011;15299;48.184;-1.916;2022-08-19T13:25:37;0.82;;;0.38;;
27959;SDS011;15299;48.184;-1.916;2022-08-19T13:28:08;0.40;;;0.40;;
27959;SDS011;15299;48.184;-1.916;2022-08-19T13:39:21;2.40;;;0.43;;
27959;SDS011;15299;48.184;-1.916;2022-08-19T13:41:49;1.75;;;0.52;;
27959;SDS011;15299;48.184;-1.916;2022-08-19T13:44:18;0.93;;;0.43;;
27959;SDS011;15299;48.184;-1.916;2022-08-19T13:46:48;5.15;;;0.45;;
27959;SDS011;15299;48.184;-1.916;2022-08-19T13:49:17;1.85;;;0.65;;
27959;SDS011;15299;48.184;-1.916;2022-08-19T13:55:15;1.90;;;0.80;;
27959;SDS011;15299;48.184;-1.916;2022-08-19T13:57:45;4.78;;;0.50;;
27959;SDS011;15299;48.184;-1.916;2022-08-19T14:00:29;0.70;;;0.60;;
27959;SDS011;15299;48.184;-1.916;2022-08-19T14:03:01;0.60;;;0.60;;
27959;SDS011;15299;48.184;-1.916;2022-08-19T14:05:38;1.38;;;0.85;;
27959;SDS011;15299;48.184;-1.916;2022-08-19T14:08:06;1.85;;;0.60;;
27959;SDS011;15299;48.184;-1.916;2022-08-19T14:10:34;2.25;;;0.80;;
27959;SDS011;15299;48.184;-1.916;2022-08-19T14:13:03;1.23;;;0.75;;
27959;SDS011;15299;48.184;-1.916;2022-08-19T14:15:32;3.50;;;0.98;;
27959;SDS011;15299;48.184;-1.916;2022-08-19T14:18:00;4.05;;;0.88;;
27959;SDS011;15299;48.184;-1.916;2022-08-19T14:20:28;1.15;;;0.68;;
27959;SDS011;15299;48.184;-1.916;2022-08-19T14:22:56;1.83;;;0.80;;
27959;SDS011;15299;48.184;-1.916;2022-08-19T14:25:26;0.90;;;0.73;;
27959;SDS011;15299;48.184;-1.916;2022-08-19T14:27:54;3.00;;;1.00;;
27959;SDS011;15299;48.184;-1.916;2022-08-19T14:30:23;2.03;;;1.17;;
27959;SDS011;15299;48.184;-1.916;2022-08-19T14:32:54;3.58;;;1.33;;
27959;SDS011;15299;48.184;-1.916;2022-08-19T14:35:22;1.95;;;1.00;;
27959;SDS011;15299;48.184;-1.916;2022-08-19T14:37:53;3.50;;;1.10;;
27959;SDS011;15299;48.184;-1.916;2022-08-19T14:40:22;2.90;;;1.10;;
27959;SDS011;15299;48.184;-1.916;2022-08-19T14:43:29;3.53;;;1.45;;
27959;SDS011;15299;48.184;-1.916;2022-08-19T14:45:56;7.38;;;1.70;;
27959;SDS011;15299;48.184;-1.916;2022-08-19T14:48:34;3.88;;;1.33;;
27959;SDS011;15299;48.184;-1.916;2022-08-19T14:51:04;9.45;;;1.98;;
27959;SDS011;15299;48.184;-1.916;2022-08-19T14:56:15;5.30;;;1.50;;
27959;SDS011;15299;48.184;-1.916;2022-08-19T14:58:44;9.18;;;1.70;;
27959;SDS011;15299;48.184;-1.916;2022-08-19T15:01:12;5.10;;;1.95;;